createdAt,value
2019-03-19T00:00:15.196Z,2.50
2019-03-19T00:02:43.645Z,2.40
2019-03-19T00:05:12.232Z,2.40
2019-03-19T00:07:40.979Z,2.40
2019-03-19T00:10:09.903Z,2.40
2019-03-19T00:12:38.332Z,2.40
2019-03-19T00:15:09.220Z,2.40
2019-03-19T00:17:37.677Z,2.40
2019-03-19T00:20:13.919Z,2.50
2019-03-19T00:22:42.349Z,2.40
2019-03-19T00:25:11.020Z,2.40
2019-03-19T00:27:39.551Z,2.30
2019-03-19T00:30:13.186Z,2.30
2019-03-19T00:32:41.703Z,2.20
2019-03-19T00:35:10.399Z,2.10
2019-03-19T00:37:38.901Z,2.20
2019-03-19T00:40:10.139Z,2.10
2019-03-19T00:42:38.584Z,2.10
2019-03-19T00:45:12.506Z,2.10
2019-03-19T00:47:40.957Z,2.10
2019-03-19T00:50:11.232Z,2.00
2019-03-19T00:52:39.656Z,1.70
2019-03-19T00:55:08.854Z,1.60
2019-03-19T00:57:37.304Z,1.60
2019-03-19T01:00:13.880Z,1.60
2019-03-19T01:02:42.410Z,1.60
2019-03-19T01:05:10.897Z,1.70
2019-03-19T01:07:39.407Z,1.70
2019-03-19T01:10:17.213Z,1.70
2019-03-19T01:12:44.740Z,1.60
2019-03-19T01:15:14.293Z,1.50
2019-03-19T01:17:42.758Z,1.40
2019-03-19T01:20:13.073Z,1.30
2019-03-19T01:22:41.584Z,1.30
2019-03-19T01:25:10.857Z,1.30
2019-03-19T01:27:39.379Z,1.40
2019-03-19T01:30:15.779Z,1.50
2019-03-19T01:32:44.297Z,1.40
2019-03-19T01:35:12.713Z,1.50
2019-03-19T01:37:41.162Z,1.50
2019-03-19T01:40:11.662Z,1.70
2019-03-19T01:42:40.261Z,1.80
2019-03-19T01:45:10.429Z,1.90
2019-03-19T01:47:38.936Z,1.90
2019-03-19T01:50:09.714Z,1.80
2019-03-19T01:52:38.132Z,1.80
2019-03-19T01:55:09.724Z,1.90
2019-03-19T01:57:38.155Z,1.90
2019-03-19T02:00:09.816Z,1.90
2019-03-19T02:02:38.267Z,1.90
2019-03-19T02:05:06.886Z,1.90
2019-03-19T02:07:35.336Z,1.90
2019-03-19T02:10:05.392Z,1.90
2019-03-19T02:12:33.832Z,1.90
2019-03-19T02:15:02.291Z,1.80
2019-03-19T02:17:30.705Z,1.80
2019-03-19T02:19:59.157Z,1.70
2019-03-19T02:22:27.613Z,1.70
2019-03-19T02:24:56.043Z,1.50
2019-03-19T02:27:24.496Z,1.50
2019-03-19T02:29:52.956Z,1.50
2019-03-19T02:32:21.386Z,1.60
2019-03-19T02:34:49.807Z,1.50
2019-03-19T02:37:18.262Z,1.60
2019-03-19T02:39:46.771Z,1.70
2019-03-19T02:42:15.225Z,1.60
2019-03-19T02:44:43.743Z,1.60
2019-03-19T02:47:12.262Z,1.60
2019-03-19T02:49:40.726Z,1.70
2019-03-19T02:52:09.155Z,1.70
2019-03-19T02:54:37.582Z,1.60
2019-03-19T02:57:06.047Z,1.60
2019-03-19T02:59:34.468Z,1.50
2019-03-19T03:02:02.893Z,1.50
2019-03-19T03:04:31.353Z,1.50
2019-03-19T03:06:59.782Z,1.50
2019-03-19T03:09:28.784Z,1.50
2019-03-19T03:11:57.181Z,1.40
2019-03-19T03:14:25.625Z,1.40
2019-03-19T03:16:54.054Z,1.40
2019-03-19T03:19:22.506Z,1.40
2019-03-19T03:21:50.937Z,1.50
2019-03-19T03:24:19.389Z,1.50
2019-03-19T03:26:48.887Z,1.60
2019-03-19T03:29:18.425Z,1.60
2019-03-19T03:31:46.859Z,1.50
2019-03-19T03:34:15.353Z,1.40
2019-03-19T03:36:43.844Z,1.40
2019-03-19T03:39:12.277Z,1.50
2019-03-19T03:41:40.745Z,1.50
2019-03-19T03:44:09.200Z,1.50
2019-03-19T03:46:37.623Z,1.50
2019-03-19T03:49:06.145Z,1.50
2019-03-19T03:51:34.667Z,1.40
2019-03-19T03:54:03.168Z,1.40
2019-03-19T03:56:31.622Z,1.30
2019-03-19T03:59:01.336Z,1.20
2019-03-19T04:01:30.067Z,1.30
2019-03-19T04:03:58.531Z,1.40
2019-03-19T04:06:27.301Z,1.40
2019-03-19T04:08:55.747Z,1.40
2019-03-19T04:11:24.223Z,1.40
2019-03-19T04:13:52.745Z,1.40
2019-03-19T04:16:21.233Z,1.40
2019-03-19T04:18:49.690Z,1.30
2019-03-19T04:21:18.118Z,1.30
2019-03-19T04:23:46.654Z,1.30
2019-03-19T04:26:15.153Z,1.20
2019-03-19T04:28:43.677Z,1.30
2019-03-19T04:31:12.295Z,1.20
2019-03-19T04:33:40.750Z,1.30
2019-03-19T04:36:09.189Z,1.40
2019-03-19T04:38:37.633Z,1.40
2019-03-19T04:41:06.065Z,1.30
2019-03-19T04:43:34.557Z,1.30
2019-03-19T04:46:03.057Z,1.30
2019-03-19T04:48:31.480Z,1.30
2019-03-19T04:50:59.942Z,1.30
2019-03-19T04:53:28.381Z,1.20
2019-03-19T04:55:56.834Z,1.20
2019-03-19T04:58:25.278Z,1.30
2019-03-19T05:00:53.732Z,1.30
2019-03-19T05:03:22.174Z,1.40
2019-03-19T05:05:50.635Z,1.40
2019-03-19T05:08:19.062Z,1.40
2019-03-19T05:10:47.521Z,1.30
2019-03-19T05:13:15.978Z,1.30
2019-03-19T05:15:44.458Z,1.30
2019-03-19T05:18:12.913Z,1.30
2019-03-19T05:20:41.336Z,1.20
2019-03-19T05:23:09.808Z,1.20
2019-03-19T05:25:38.268Z,1.20
2019-03-19T05:28:06.703Z,1.20
2019-03-19T05:30:35.157Z,1.20
2019-03-19T05:33:03.662Z,1.10
2019-03-19T05:35:32.125Z,1.20
2019-03-19T05:38:00.597Z,1.10
2019-03-19T05:40:29.092Z,1.10
2019-03-19T05:42:57.557Z,1.10
2019-03-19T05:45:25.994Z,1.10
2019-03-19T05:47:54.453Z,1.10
2019-03-19T05:50:23.649Z,1.10
2019-03-19T05:52:52.104Z,1.10
2019-03-19T05:55:20.620Z,1.10
2019-03-19T05:57:50.386Z,1.10
2019-03-19T06:00:23.810Z,1.10
2019-03-19T06:03:11.628Z,1.20
2019-03-19T06:05:40.076Z,1.20
2019-03-19T06:08:08.538Z,1.30
2019-03-19T06:10:36.966Z,1.40
2019-03-19T06:13:05.465Z,1.40
2019-03-19T06:15:33.952Z,1.50
2019-03-19T06:18:02.382Z,1.50
2019-03-19T06:20:30.849Z,1.70
2019-03-19T06:22:59.333Z,1.70
2019-03-19T06:25:27.794Z,1.80
2019-03-19T06:28:00.719Z,1.90
2019-03-19T06:30:26.428Z,2.00
2019-03-19T06:32:54.886Z,2.10
2019-03-19T06:35:23.375Z,2.10
2019-03-19T06:37:51.818Z,2.10
2019-03-19T06:40:21.413Z,2.20
2019-03-19T06:42:49.841Z,2.20
2019-03-19T06:45:19.441Z,2.40
2019-03-19T06:47:47.868Z,2.50
2019-03-19T06:50:17.362Z,2.40
2019-03-19T06:52:45.852Z,2.30
2019-03-19T06:55:15.444Z,2.50
2019-03-19T06:57:43.945Z,2.60
2019-03-19T07:00:20.220Z,2.70
2019-03-19T07:02:48.681Z,2.80
2019-03-19T07:05:18.273Z,2.80
2019-03-19T07:07:47.209Z,2.90
2019-03-19T07:10:16.704Z,3.10
2019-03-19T07:12:45.222Z,3.10
2019-03-19T07:15:21.594Z,3.20
2019-03-19T07:17:50.031Z,3.30
2019-03-19T07:20:19.917Z,3.40
2019-03-19T07:22:48.438Z,3.30
2019-03-19T07:25:16.938Z,3.60
2019-03-19T07:27:45.378Z,3.70
2019-03-19T07:30:19.700Z,3.70
2019-03-19T07:32:48.130Z,3.60
2019-03-19T07:35:16.726Z,3.90
2019-03-19T07:37:45.162Z,4.20
2019-03-19T07:40:14.753Z,4.30
2019-03-19T07:42:43.297Z,4.00
2019-03-19T07:45:16.559Z,4.10
2019-03-19T07:47:45.148Z,4.20
2019-03-19T07:50:17.806Z,4.60
2019-03-19T07:52:46.340Z,4.70
2019-03-19T07:55:14.756Z,5.00
2019-03-19T07:57:43.401Z,5.10
2019-03-19T08:00:19.478Z,5.10
2019-03-19T08:02:48.005Z,5.00
2019-03-19T08:05:16.466Z,4.90
2019-03-19T08:07:44.962Z,4.90
2019-03-19T08:10:14.558Z,5.10
2019-03-19T08:12:43.056Z,5.30
2019-03-19T08:15:13.238Z,5.50
2019-03-19T08:17:42.891Z,5.70
2019-03-19T08:20:13.535Z,5.80
2019-03-19T08:22:42.229Z,5.80
2019-03-19T08:25:14.705Z,5.90
2019-03-19T08:27:43.293Z,5.70
2019-03-19T08:30:17.166Z,5.80
2019-03-19T08:32:45.594Z,6.00
2019-03-19T08:35:14.272Z,6.20
2019-03-19T08:37:42.795Z,6.40
2019-03-19T08:40:14.025Z,6.50
2019-03-19T08:42:42.567Z,6.30
2019-03-19T08:45:16.137Z,6.40
2019-03-19T08:47:44.565Z,6.50
2019-03-19T08:50:15.362Z,6.70
2019-03-19T08:52:43.800Z,6.70
2019-03-19T08:55:12.280Z,6.60
2019-03-19T08:57:40.757Z,6.90
2019-03-19T09:00:22.521Z,7.40
2019-03-19T09:02:50.980Z,7.40
2019-03-19T09:05:19.416Z,7.30
2019-03-19T09:07:47.942Z,7.30
2019-03-19T09:10:17.576Z,7.70
2019-03-19T09:12:48.151Z,7.20
2019-03-19T09:15:17.745Z,7.40
2019-03-19T09:17:46.160Z,7.40
2019-03-19T09:20:15.849Z,7.40
2019-03-19T09:22:44.369Z,7.30
2019-03-19T09:25:13.018Z,7.20
2019-03-19T09:27:41.526Z,7.50
2019-03-19T09:30:15.917Z,7.70
2019-03-19T09:32:44.417Z,7.60
2019-03-19T09:35:13.617Z,7.50
2019-03-19T09:37:44.793Z,7.50
2019-03-19T09:40:16.668Z,7.80
2019-03-19T09:42:45.192Z,8.10
2019-03-19T09:45:15.043Z,8.70
2019-03-19T09:47:43.504Z,8.60
2019-03-19T09:50:18.106Z,8.50
2019-03-19T09:52:46.928Z,8.80
2019-03-19T09:55:15.368Z,8.70
2019-03-19T09:57:43.807Z,9.00
2019-03-19T10:00:21.932Z,9.20
2019-03-19T10:02:50.439Z,9.00
2019-03-19T10:05:19.220Z,8.20
2019-03-19T10:07:47.776Z,7.80
2019-03-19T10:10:20.672Z,7.90
2019-03-19T10:12:49.190Z,8.80
2019-03-19T10:15:18.582Z,8.80
2019-03-19T10:17:47.011Z,8.60
2019-03-19T10:20:18.045Z,8.80
2019-03-19T10:22:47.080Z,8.80
2019-03-19T10:25:16.510Z,8.50
2019-03-19T10:27:45.034Z,9.10
2019-03-19T10:30:21.315Z,8.70
2019-03-19T10:32:49.854Z,7.90
2019-03-19T10:35:18.386Z,7.70
2019-03-19T10:37:46.867Z,8.10
2019-03-19T10:40:19.450Z,8.50
2019-03-19T10:42:48.350Z,8.90
2019-03-19T10:45:17.996Z,8.50
2019-03-19T10:47:46.518Z,9.40
2019-03-19T10:50:26.719Z,9.00
2019-03-19T10:52:55.214Z,9.70
2019-03-19T10:55:23.676Z,10.00
2019-03-19T10:57:52.169Z,10.10
2019-03-19T11:00:22.133Z,9.50
2019-03-19T11:02:50.793Z,8.40
2019-03-19T11:05:20.491Z,8.40
2019-03-19T11:07:48.911Z,8.20
2019-03-19T11:10:18.285Z,8.30
2019-03-19T11:12:46.828Z,8.30
2019-03-19T11:15:20.152Z,8.40
2019-03-19T11:17:48.604Z,8.40
2019-03-19T11:20:19.039Z,8.50
2019-03-19T11:22:47.687Z,8.60
2019-03-19T11:25:20.756Z,8.70
2019-03-19T11:27:48.675Z,8.40
2019-03-19T11:30:28.269Z,8.10
2019-03-19T11:32:56.919Z,8.30
2019-03-19T11:35:25.433Z,8.40
2019-03-19T11:37:56.621Z,9.10
2019-03-19T11:40:37.538Z,9.40
2019-03-19T11:43:06.124Z,8.90
2019-03-19T11:45:34.704Z,8.60
2019-03-19T11:48:03.148Z,8.80
2019-03-19T11:50:33.418Z,8.80
2019-03-19T11:53:02.260Z,8.80
2019-03-19T11:55:30.763Z,8.90
2019-03-19T11:57:59.224Z,9.20
2019-03-19T12:00:30.325Z,9.30
2019-03-19T12:02:58.916Z,9.10
2019-03-19T12:05:27.369Z,9.10
2019-03-19T12:07:55.888Z,9.10
2019-03-19T12:10:24.418Z,8.60
2019-03-19T12:12:52.980Z,8.70
2019-03-19T12:15:21.442Z,8.70
2019-03-19T12:17:49.865Z,8.80
2019-03-19T12:20:20.611Z,9.00
2019-03-19T12:22:48.475Z,9.70
2019-03-19T12:25:16.981Z,9.90
2019-03-19T12:27:45.412Z,9.80
2019-03-19T12:30:22.484Z,10.40
2019-03-19T12:32:50.956Z,10.70
2019-03-19T12:35:20.359Z,10.50
2019-03-19T12:37:48.817Z,10.30
2019-03-19T12:40:18.743Z,10.20
2019-03-19T12:42:47.693Z,9.80
2019-03-19T12:45:18.454Z,9.80
2019-03-19T12:47:46.986Z,9.60
2019-03-19T12:50:23.114Z,9.30
2019-03-19T12:52:51.544Z,9.20
2019-03-19T12:55:20.041Z,9.40
2019-03-19T12:57:48.505Z,9.80
2019-03-19T13:00:33.336Z,9.50
2019-03-19T13:02:54.354Z,9.40
2019-03-19T13:05:22.915Z,9.40
2019-03-19T13:07:51.466Z,9.70
2019-03-19T13:10:21.271Z,10.40
2019-03-19T13:12:50.251Z,10.60
2019-03-19T13:15:19.736Z,10.40
2019-03-19T13:17:48.457Z,10.30
2019-03-19T13:20:17.938Z,10.50
2019-03-19T13:22:46.467Z,10.90
2019-03-19T13:25:18.007Z,10.40
2019-03-19T13:27:46.453Z,10.30
2019-03-19T13:30:22.794Z,10.60
2019-03-19T13:32:51.306Z,10.70
2019-03-19T13:35:19.777Z,10.70
2019-03-19T13:37:48.216Z,11.00
2019-03-19T13:40:17.597Z,10.60
2019-03-19T13:42:46.119Z,10.20
2019-03-19T13:45:17.091Z,9.70
2019-03-19T13:47:45.523Z,9.60
2019-03-19T13:50:17.044Z,9.60
2019-03-19T13:52:45.628Z,9.40
2019-03-19T13:55:26.160Z,9.30
2019-03-19T13:57:54.611Z,9.50
2019-03-19T14:00:23.153Z,9.60
2019-03-19T14:02:51.582Z,9.30
2019-03-19T14:05:20.068Z,9.00
2019-03-19T14:07:48.603Z,9.00
2019-03-19T14:10:18.076Z,9.10
2019-03-19T14:12:46.709Z,9.10
2019-03-19T14:15:18.224Z,9.30
2019-03-19T14:17:46.687Z,9.30
2019-03-19T14:20:16.358Z,9.30
2019-03-19T14:22:45.666Z,9.60
2019-03-19T14:25:15.816Z,10.00
2019-03-19T14:27:45.064Z,10.20
2019-03-19T14:30:21.404Z,10.20
2019-03-19T14:32:49.919Z,10.60
2019-03-19T14:35:18.593Z,10.30
2019-03-19T14:37:47.122Z,9.90
2019-03-19T14:40:20.576Z,9.70
2019-03-19T14:42:49.045Z,10.00
2019-03-19T14:45:18.030Z,10.30
2019-03-19T14:47:46.520Z,10.00
2019-03-19T14:50:17.404Z,10.20
2019-03-19T14:52:45.900Z,10.20
2019-03-19T14:55:14.589Z,9.90
2019-03-19T14:57:43.130Z,9.70
2019-03-19T15:00:21.701Z,9.70
2019-03-19T15:02:50.156Z,9.50
2019-03-19T15:05:18.749Z,9.50
2019-03-19T15:07:47.287Z,9.70
2019-03-19T15:10:25.338Z,10.00
2019-03-19T15:12:53.802Z,10.30
2019-03-19T15:15:22.780Z,10.50
2019-03-19T15:17:51.304Z,10.60
2019-03-19T15:20:27.045Z,10.80
2019-03-19T15:22:55.523Z,10.80
2019-03-19T15:25:24.026Z,11.00
2019-03-19T15:27:53.002Z,10.80
2019-03-19T15:30:21.681Z,10.50
2019-03-19T15:32:50.146Z,10.60
2019-03-19T15:35:18.600Z,10.40
2019-03-19T15:37:48.023Z,10.40
2019-03-19T15:40:17.600Z,10.10
2019-03-19T15:42:46.389Z,10.10
2019-03-19T15:45:23.140Z,10.20
2019-03-19T15:47:51.569Z,10.30
2019-03-19T15:50:20.011Z,10.60
2019-03-19T15:52:48.454Z,10.50
2019-03-19T15:55:16.919Z,10.80
2019-03-19T15:57:45.421Z,10.70
2019-03-19T16:00:20.717Z,10.50
2019-03-19T16:02:49.238Z,10.30
2019-03-19T16:05:17.819Z,10.40
2019-03-19T16:07:46.306Z,10.40
2019-03-19T16:10:21.089Z,10.30
2019-03-19T16:12:49.601Z,10.20
2019-03-19T16:15:22.659Z,10.30
2019-03-19T16:17:51.185Z,10.40
2019-03-19T16:20:20.448Z,10.40
2019-03-19T16:22:48.920Z,10.30
2019-03-19T16:25:17.424Z,10.00
2019-03-19T16:27:46.007Z,10.00
2019-03-19T16:30:15.606Z,9.90
2019-03-19T16:32:44.109Z,9.90
2019-03-19T16:35:13.123Z,9.90
2019-03-19T16:37:41.687Z,9.90
2019-03-19T16:40:15.781Z,10.00
2019-03-19T16:42:44.232Z,10.10
2019-03-19T16:45:13.531Z,9.90
2019-03-19T16:47:42.061Z,10.00
2019-03-19T16:50:15.247Z,9.70
2019-03-19T16:52:43.766Z,9.70
2019-03-19T16:55:14.346Z,9.40
2019-03-19T16:57:42.847Z,9.40
2019-03-19T17:00:16.461Z,9.30
2019-03-19T17:02:44.905Z,9.20
2019-03-19T17:05:14.415Z,9.20
2019-03-19T17:07:42.846Z,9.20
2019-03-19T17:10:16.635Z,9.20
2019-03-19T17:12:46.761Z,9.20
2019-03-19T17:15:16.365Z,9.10
2019-03-19T17:17:45.086Z,9.00
2019-03-19T17:20:14.943Z,9.00
2019-03-19T17:22:43.480Z,9.00
2019-03-19T17:25:19.485Z,8.90
2019-03-19T17:27:47.924Z,8.90
2019-03-19T17:30:18.654Z,8.80
2019-03-19T17:32:47.081Z,8.70
2019-03-19T17:35:15.497Z,8.60
2019-03-19T17:37:43.948Z,8.60
2019-03-19T17:40:13.713Z,8.60
2019-03-19T17:42:42.195Z,8.70
2019-03-19T17:45:15.290Z,8.80
2019-03-19T17:47:43.819Z,8.70
2019-03-19T17:50:20.915Z,8.60
2019-03-19T17:52:51.377Z,8.30
2019-03-19T17:55:19.816Z,8.10
2019-03-19T17:57:48.296Z,8.10
2019-03-19T18:00:22.603Z,7.90
2019-03-19T18:02:51.147Z,7.90
2019-03-19T18:05:19.708Z,7.90
2019-03-19T18:07:48.156Z,8.00
2019-03-19T18:10:16.924Z,7.90
2019-03-19T18:12:45.384Z,7.80
2019-03-19T18:15:19.072Z,7.90
2019-03-19T18:17:47.514Z,7.80
2019-03-19T18:20:17.969Z,7.70
2019-03-19T18:22:46.493Z,7.60
2019-03-19T18:25:19.681Z,7.50
2019-03-19T18:27:48.110Z,7.50
2019-03-19T18:30:17.307Z,7.50
2019-03-19T18:32:45.775Z,7.40
2019-03-19T18:35:14.268Z,7.20
2019-03-19T18:37:46.551Z,6.90
2019-03-19T18:40:15.644Z,6.60
2019-03-19T18:42:44.086Z,6.30
2019-03-19T18:45:14.736Z,6.20
2019-03-19T18:47:43.265Z,6.00
2019-03-19T18:50:31.068Z,5.80
2019-03-19T18:52:59.503Z,5.70
2019-03-19T18:55:27.963Z,5.60
2019-03-19T18:57:56.399Z,5.50
2019-03-19T19:00:25.503Z,5.50
2019-03-19T19:02:53.971Z,5.40
2019-03-19T19:05:23.340Z,5.40
2019-03-19T19:07:51.852Z,5.40
2019-03-19T19:10:21.495Z,5.30
2019-03-19T19:12:50.569Z,5.50
2019-03-19T19:15:24.153Z,5.70
2019-03-19T19:17:52.588Z,5.60
2019-03-19T19:20:21.106Z,5.40
2019-03-19T19:22:49.604Z,5.20
2019-03-19T19:25:21.872Z,5.10
2019-03-19T19:27:50.472Z,5.00
2019-03-19T19:30:45.579Z,4.90
2019-03-19T19:33:14.041Z,4.90
2019-03-19T19:35:42.474Z,4.90
2019-03-19T19:38:10.936Z,4.90
2019-03-19T19:40:39.373Z,4.90
2019-03-19T19:43:08.073Z,4.80
2019-03-19T19:45:36.532Z,4.70
2019-03-19T19:48:05.097Z,4.80
2019-03-19T19:50:33.554Z,4.50
2019-03-19T19:53:01.986Z,4.50
2019-03-19T19:55:30.437Z,4.40
2019-03-19T19:57:58.953Z,4.40
2019-03-19T20:00:27.383Z,4.40
2019-03-19T20:02:55.836Z,4.40
2019-03-19T20:05:24.273Z,4.30
2019-03-19T20:07:52.718Z,4.30
2019-03-19T20:10:23.444Z,4.30
2019-03-19T20:12:51.898Z,4.30
2019-03-19T20:15:20.481Z,4.30
2019-03-19T20:17:48.995Z,4.40
2019-03-19T20:20:19.485Z,4.40
2019-03-19T20:22:47.900Z,4.30
2019-03-19T20:25:16.367Z,4.60
2019-03-19T20:27:44.804Z,4.50
2019-03-19T20:30:19.262Z,4.50
2019-03-19T20:32:47.687Z,4.60
2019-03-19T20:35:16.136Z,4.50
2019-03-19T20:37:44.596Z,4.40
2019-03-19T20:40:19.000Z,4.30
2019-03-19T20:42:47.604Z,4.20
2019-03-19T20:45:18.406Z,4.30
2019-03-19T20:47:46.854Z,4.20
2019-03-19T20:50:21.032Z,4.00
2019-03-19T20:52:49.456Z,3.90
2019-03-19T20:55:17.975Z,3.80
2019-03-19T20:57:46.496Z,3.70
2019-03-19T21:00:17.327Z,3.60
2019-03-19T21:02:45.773Z,3.60
2019-03-19T21:05:14.451Z,3.60
2019-03-19T21:07:42.963Z,3.90
2019-03-19T21:10:25.361Z,4.00
2019-03-19T21:12:53.888Z,4.00
2019-03-19T21:15:30.523Z,3.90
2019-03-19T21:17:59.032Z,4.00
2019-03-19T21:20:27.686Z,4.00
2019-03-19T21:22:56.113Z,4.00
2019-03-19T21:25:24.599Z,4.00
2019-03-19T21:27:53.196Z,4.00
2019-03-19T21:30:25.244Z,4.00
2019-03-19T21:32:53.849Z,4.00
2019-03-19T21:35:23.135Z,4.10
2019-03-19T21:37:51.563Z,4.00
2019-03-19T21:40:20.146Z,3.90
2019-03-19T21:42:48.672Z,3.80
2019-03-19T21:45:22.315Z,3.60
2019-03-19T21:47:50.808Z,3.50
2019-03-19T21:50:20.785Z,3.60
2019-03-19T21:52:49.647Z,3.70
2019-03-19T21:55:18.064Z,3.90
2019-03-19T21:57:46.492Z,3.90
2019-03-19T22:00:22.622Z,3.80
2019-03-19T22:02:51.139Z,3.70
2019-03-19T22:05:19.565Z,3.40
2019-03-19T22:07:48.096Z,3.50
2019-03-19T22:10:18.708Z,3.60
2019-03-19T22:12:49.166Z,3.60
2019-03-19T22:15:20.389Z,3.80
2019-03-19T22:17:48.903Z,3.70
2019-03-19T22:20:17.402Z,3.50
2019-03-19T22:22:45.920Z,3.20
2019-03-19T22:25:17.285Z,3.10
2019-03-19T22:27:45.922Z,3.10
2019-03-19T22:30:20.982Z,3.20
2019-03-19T22:32:49.511Z,3.20
2019-03-19T22:35:18.064Z,3.30
2019-03-19T22:37:46.665Z,3.30
2019-03-19T22:40:16.060Z,3.30
2019-03-19T22:42:44.490Z,3.30
2019-03-19T22:45:16.542Z,3.30
2019-03-19T22:47:44.978Z,3.30
2019-03-19T22:50:17.401Z,3.20
2019-03-19T22:52:46.306Z,3.20
2019-03-19T22:55:15.533Z,3.20
2019-03-19T22:57:44.092Z,3.20
2019-03-19T23:00:38.527Z,3.20
2019-03-19T23:03:08.017Z,3.20
2019-03-19T23:05:37.081Z,3.20
2019-03-19T23:08:05.871Z,3.20
2019-03-19T23:10:35.056Z,3.20
2019-03-19T23:13:04.053Z,3.20
2019-03-19T23:15:32.576Z,3.20
2019-03-19T23:18:01.038Z,3.20
2019-03-19T23:20:29.534Z,3.30
2019-03-19T23:22:58.094Z,3.40
2019-03-19T23:25:26.626Z,3.30
2019-03-19T23:27:55.127Z,3.20
2019-03-19T23:30:26.441Z,3.20
2019-03-19T23:32:54.881Z,3.20
2019-03-19T23:35:23.442Z,3.20
2019-03-19T23:37:52.978Z,3.10
2019-03-19T23:40:22.142Z,3.10
2019-03-19T23:42:50.593Z,3.00
2019-03-19T23:45:19.113Z,2.90
2019-03-19T23:47:47.621Z,2.90
2019-03-19T23:50:20.233Z,2.90
2019-03-19T23:52:48.688Z,2.80
2019-03-19T23:55:17.201Z,2.80
2019-03-19T23:57:45.653Z,2.80
